Time;durP1;ratioP1;P1;durP2;ratioP2;P2;SDS_P1;SDS_P2;PMS_P1;PMS_P2;Temp;Humidity;BMP_temperature;BMP_pressure;BME280_temperature;BME280_humidity;BME280_pressure;Samples;Min_cycle;Max_cycle;Signal;HPM_P1;HPM_P2
2024/01/27 00:00:45;;;;;;;2.45;0.65;;;5.70;99.90;;;;;;5031447;28;20033;-53
2024/01/27 00:03:12;;;;;;;2.25;0.63;;;5.70;99.90;;;;;;5030865;28;20057;-55
2024/01/27 00:05:39;;;;;;;3.17;1.15;;;5.70;99.90;;;;;;5025295;28;20398;-52
2024/01/27 00:08:06;;;;;;;3.00;1.20;;;5.70;99.90;;;;;;5023831;28;20070;-56
2024/01/27 00:10:33;;;;;;;2.80;0.70;;;5.70;99.90;;;;;;5031428;28;20121;-54
2024/01/27 00:13:00;;;;;;;3.10;0.73;;;5.70;99.90;;;;;;5021180;28;20041;-53
2024/01/27 00:15:26;;;;;;;7.20;1.13;;;5.60;99.90;;;;;;5030604;28;20417;-55
2024/01/27 00:17:53;;;;;;;3.90;0.88;;;5.60;99.90;;;;;;5028126;28;20045;-54
2024/01/27 00:20:20;;;;;;;2.88;1.08;;;5.50;99.90;;;;;;5026767;28;20049;-54
2024/01/27 00:22:47;;;;;;;2.65;1.00;;;5.40;99.90;;;;;;5025651;28;20049;-52
2024/01/27 00:25:13;;;;;;;3.85;1.02;;;5.30;99.90;;;;;;5028124;28;20072;-54
2024/01/27 00:27:40;;;;;;;4.75;1.17;;;5.30;99.90;;;;;;5024462;28;20048;-56
2024/01/27 00:30:07;;;;;;;1.73;1.10;;;5.30;99.90;;;;;;5030138;28;20037;-54
2024/01/27 00:32:34;;;;;;;;;;;5.30;99.90;;;;;;5023564;28;20497;-54
2024/01/27 00:35:01;;;;;;;8.10;2.10;;;5.20;99.90;;;;;;5030549;28;19924;-54
2024/01/27 00:37:29;;;;;;;6.80;2.38;;;5.20;99.90;;;;;;5021815;28;20045;-53
2024/01/27 00:39:56;;;;;;;6.78;2.30;;;5.10;99.90;;;;;;5031017;28;20486;-53
2024/01/27 00:42:24;;;;;;;7.80;1.95;;;5.00;99.90;;;;;;5022809;28;20049;-53
2024/01/27 00:44:51;;;;;;;6.93;1.80;;;4.90;99.90;;;;;;5030511;28;20061;-54
2024/01/27 00:47:18;;;;;;;9.30;2.38;;;4.90;99.90;;;;;;5027031;28;20049;-54
2024/01/27 00:49:46;;;;;;;8.00;1.98;;;4.90;99.90;;;;;;5030616;28;20051;-52
2024/01/27 00:52:13;;;;;;;7.65;1.50;;;4.90;99.90;;;;;;5030789;28;20038;-55
2024/01/27 00:54:40;;;;;;;3.00;1.40;;;4.80;99.90;;;;;;5028967;28;20043;-57
2024/01/27 00:57:07;;;;;;;6.72;1.33;;;4.70;99.90;;;;;;5026582;28;20045;-53
2024/01/27 00:59:34;;;;;;;1.50;0.75;;;4.80;99.90;;;;;;5030630;28;20057;-54
2024/01/27 01:02:00;;;;;;;5.75;0.98;;;4.70;99.90;;;;;;5030480;28;20049;-53
2024/01/27 01:04:27;;;;;;;2.35;0.70;;;4.70;99.90;;;;;;5023213;28;20057;-52
2024/01/27 01:06:54;;;;;;;4.68;0.70;;;4.60;99.90;;;;;;5020877;28;20402;-53
2024/01/27 01:09:21;;;;;;;2.83;0.75;;;4.50;99.90;;;;;;5028929;28;20034;-52
2024/01/27 01:11:48;;;;;;;4.20;0.80;;;4.40;99.90;;;;;;5015880;28;20045;-54
2024/01/27 01:14:14;;;;;;;3.95;0.73;;;4.40;99.90;;;;;;5014210;28;20494;-52
2024/01/27 01:16:41;;;;;;;1.70;0.60;;;4.30;99.90;;;;;;5026924;28;20046;-56
2024/01/27 01:19:08;;;;;;;2.97;0.98;;;4.20;99.90;;;;;;5019855;28;20042;-52
2024/01/27 01:21:36;;;;;;;4.15;0.70;;;4.10;99.90;;;;;;5019555;28;20060;-53
2024/01/27 01:24:02;;;;;;;;;;;4.10;99.90;;;;;;5019755;28;20045;-53
2024/01/27 01:26:29;;;;;;;4.32;0.80;;;4.20;99.90;;;;;;5030703;28;20027;-52
2024/01/27 01:28:56;;;;;;;3.47;0.90;;;4.30;99.90;;;;;;5030474;28;20037;-55
2024/01/27 01:31:23;;;;;;;2.85;1.05;;;4.30;99.90;;;;;;5015789;28;20080;-56
2024/01/27 01:33:50;;;;;;;1.30;0.60;;;4.30;99.90;;;;;;5021813;28;20045;-52
2024/01/27 01:36:17;;;;;;;0.98;0.80;;;4.20;99.90;;;;;;5017331;28;20034;-55
2024/01/27 01:38:43;;;;;;;2.50;0.70;;;4.30;99.90;;;;;;5019450;28;20049;-54
2024/01/27 01:41:10;;;;;;;6.40;1.90;;;4.40;99.90;;;;;;5019853;28;20566;-52
2024/01/27 01:43:37;;;;;;;4.80;1.90;;;4.20;99.90;;;;;;5029537;28;20042;-55
2024/01/27 01:46:05;;;;;;;6.63;1.40;;;4.10;99.90;;;;;;5019819;28;20052;-52
2024/01/27 01:48:32;;;;;;;2.38;1.13;;;4.20;99.90;;;;;;5021918;28;20528;-52
2024/01/27 01:51:00;;;;;;;4.15;1.33;;;4.20;99.90;;;;;;5022337;28;20101;-53
2024/01/27 01:53:27;;;;;;;4.55;1.30;;;4.20;99.90;;;;;;5023376;28;20127;-58
2024/01/27 01:55:55;;;;;;;8.15;1.52;;;4.20;99.90;;;;;;5022559;28;20057;-57
2024/01/27 01:58:22;;;;;;;7.70;1.45;;;4.10;99.90;;;;;;5020023;28;20549;-56
2024/01/27 02:00:49;;;;;;;4.20;1.30;;;4.10;99.90;;;;;;5019533;28;20046;-57
2024/01/27 02:03:16;;;;;;;7.57;2.78;;;4.10;99.90;;;;;;5025720;28;20065;-54
2024/01/27 02:05:43;;;;;;;3.95;1.58;;;4.00;99.90;;;;;;5025402;28;20498;-57
2024/01/27 02:08:10;;;;;;;3.47;1.13;;;4.00;99.90;;;;;;5025483;28;20041;-54
2024/01/27 02:10:37;;;;;;;4.03;0.93;;;4.00;99.90;;;;;;5027578;28;20041;-56
2024/01/27 02:13:15;;;;;;;2.20;1.20;;;4.10;99.90;;;;;;5027498;28;20048;-54
2024/01/27 02:15:42;;;;;;;4.05;1.27;;;4.20;99.90;;;;;;5022724;28;20041;-57
2024/01/27 02:18:09;;;;;;;3.38;1.15;;;4.10;99.90;;;;;;5033740;28;20052;-52
2024/01/27 02:20:37;;;;;;;4.72;1.35;;;4.10;99.90;;;;;;5026181;28;20056;-53
2024/01/27 02:23:05;;;;;;;5.60;1.58;;;4.00;99.90;;;;;;5009450;28;20073;-56
2024/01/27 02:25:32;;;;;;;3.55;1.23;;;3.90;99.90;;;;;;5022194;28;20052;-53
2024/01/27 02:27:59;;;;;;;6.45;1.73;;;3.90;99.90;;;;;;5025530;28;20046;-54
2024/01/27 02:30:25;;;;;;;6.57;1.52;;;3.90;99.90;;;;;;5029016;28;20038;-52
2024/01/27 02:32:53;;;;;;;3.92;1.20;;;3.90;99.90;;;;;;5021620;28;20038;-56
2024/01/27 02:35:20;;;;;;;5.30;1.52;;;3.90;99.90;;;;;;5026201;28;20040;-54
2024/01/27 02:37:46;;;;;;;2.70;0.90;;;4.00;99.90;;;;;;5003031;28;20133;-53
2024/01/27 02:40:14;;;;;;;6.20;1.30;;;4.00;99.90;;;;;;5022578;28;20414;-54
2024/01/27 02:42:44;;;;;;;4.13;1.20;;;4.10;99.90;;;;;;5024765;28;20120;-52
2024/01/27 02:45:14;;;;;;;6.65;1.17;;;4.20;99.90;;;;;;5022192;28;20164;-53
2024/01/27 02:47:41;;;;;;;8.15;1.05;;;4.20;99.90;;;;;;5025502;28;20100;-54
2024/01/27 02:50:08;;;;;;;4.70;0.90;;;4.20;99.90;;;;;;5024790;28;20549;-53
2024/01/27 02:52:35;;;;;;;4.35;1.00;;;4.20;99.90;;;;;;5015803;28;20073;-52
2024/01/27 02:55:02;;;;;;;2.05;1.23;;;4.30;99.90;;;;;;5018008;28;20060;-55
2024/01/27 02:57:29;;;;;;;1.65;0.90;;;4.30;99.90;;;;;;5022176;28;20053;-56
2024/01/27 02:59:56;;;;;;;2.83;1.17;;;4.30;99.90;;;;;;5021560;28;20057;-55
2024/01/27 03:02:23;;;;;;;2.10;1.20;;;4.20;99.90;;;;;;5017910;28;20046;-54
2024/01/27 03:04:49;;;;;;;1.63;0.88;;;4.10;99.90;;;;;;5021919;28;20137;-52
2024/01/27 03:07:16;;;;;;;2.25;1.15;;;4.10;99.90;;;;;;5007322;28;20072;-57
2024/01/27 03:09:43;;;;;;;3.30;1.45;;;4.10;99.90;;;;;;5017375;28;20092;-52
2024/01/27 03:12:10;;;;;;;5.78;1.10;;;4.20;99.90;;;;;;5028153;28;20045;-53
2024/01/27 03:14:37;;;;;;;4.32;1.15;;;4.20;99.90;;;;;;5032393;28;20045;-52
2024/01/27 03:17:04;;;;;;;4.63;1.10;;;4.10;99.90;;;;;;5023764;28;20046;-55
2024/01/27 03:19:31;;;;;;;4.55;1.20;;;4.20;99.90;;;;;;5014456;28;20050;-52
2024/01/27 03:21:58;;;;;;;3.33;1.17;;;4.10;99.90;;;;;;5032650;28;20057;-53
2024/01/27 03:24:25;;;;;;;3.33;1.40;;;4.10;99.90;;;;;;5030860;28;20053;-55
2024/01/27 03:26:51;;;;;;;3.67;1.17;;;4.10;99.90;;;;;;5014473;28;20053;-56
2024/01/27 03:29:18;;;;;;;4.40;1.48;;;4.20;99.90;;;;;;5031938;28;20117;-53
2024/01/27 03:31:45;;;;;;;3.65;1.02;;;4.20;99.90;;;;;;5032560;28;20409;-54
2024/01/27 03:34:12;;;;;;;8.82;1.48;;;4.20;99.90;;;;;;5027947;28;20049;-53
2024/01/27 03:36:40;;;;;;;4.82;1.27;;;4.30;99.90;;;;;;5028905;28;20456;-54
2024/01/27 03:39:07;;;;;;;6.35;1.27;;;4.20;99.90;;;;;;5025668;28;20108;-53
2024/01/27 03:41:34;;;;;;;7.88;1.15;;;4.20;99.90;;;;;;5023835;28;20776;-53
2024/01/27 03:44:01;;;;;;;3.45;0.93;;;4.20;99.90;;;;;;5012653;28;20088;-52
2024/01/27 03:46:28;;;;;;;4.03;1.20;;;4.20;99.90;;;;;;5020462;28;20041;-54
2024/01/27 03:48:55;;;;;;;5.35;1.42;;;4.20;99.90;;;;;;5020416;28;20487;-52
2024/01/27 03:51:23;;;;;;;5.38;1.30;;;4.30;99.90;;;;;;5018717;28;20045;-53
2024/01/27 03:53:49;;;;;;;4.18;1.63;;;4.20;99.90;;;;;;5031115;28;20045;-54
2024/01/27 03:56:16;;;;;;;4.80;2.00;;;4.20;99.90;;;;;;5030995;28;20041;-52
2024/01/27 03:58:43;;;;;;;4.95;2.38;;;4.30;99.90;;;;;;5032044;28;20056;-57
2024/01/27 04:01:10;;;;;;;2.85;0.98;;;4.20;99.90;;;;;;5022820;28;20045;-56
2024/01/27 04:03:37;;;;;;;2.95;1.30;;;4.00;99.90;;;;;;5022431;28;20084;-55
2024/01/27 04:06:04;;;;;;;2.85;1.30;;;4.00;99.90;;;;;;5032120;28;20129;-54
2024/01/27 04:08:31;;;;;;;3.70;1.55;;;4.00;99.90;;;;;;5024002;28;20049;-54
2024/01/27 04:10:58;;;;;;;8.07;1.75;;;3.90;99.90;;;;;;5012076;28;20065;-55
2024/01/27 04:13:25;;;;;;;4.40;1.20;;;4.00;99.90;;;;;;5030354;28;20046;-53
2024/01/27 04:15:53;;;;;;;7.15;1.52;;;4.00;99.90;;;;;;5023563;28;20057;-55
2024/01/27 04:18:20;;;;;;;5.25;1.48;;;4.00;99.90;;;;;;5031538;28;20033;-56
2024/01/27 04:20:48;;;;;;;5.30;1.38;;;3.90;99.90;;;;;;5022551;28;20049;-53
2024/01/27 04:23:15;;;;;;;6.00;1.30;;;3.90;99.90;;;;;;5011827;28;20045;-52
2024/01/27 04:25:43;;;;;;;;;;;3.90;99.90;;;;;;5011685;28;20621;-54
2024/01/27 04:28:11;;;;;;;4.35;1.63;;;3.90;99.90;;;;;;5022869;28;19920;-52
2024/01/27 04:30:38;;;;;;;3.78;1.50;;;3.90;99.90;;;;;;5012528;28;20088;-57
2024/01/27 04:33:07;;;;;;;5.30;1.42;;;3.90;99.90;;;;;;5030266;28;20073;-55
2024/01/27 04:35:34;;;;;;;3.63;1.33;;;3.90;99.90;;;;;;5023818;28;20042;-56
2024/01/27 04:38:01;;;;;;;4.15;1.27;;;3.90;99.90;;;;;;5019037;28;20050;-51
2024/01/27 04:40:28;;;;;;;2.38;1.38;;;3.90;99.90;;;;;;5018707;28;20078;-55
2024/01/27 04:42:55;;;;;;;7.30;1.35;;;3.90;99.90;;;;;;5017127;28;20132;-55
2024/01/27 04:45:22;;;;;;;5.28;1.35;;;4.00;99.90;;;;;;5014145;28;20501;-56
2024/01/27 04:47:49;;;;;;;3.60;1.50;;;4.00;99.90;;;;;;5028997;28;20041;-55
2024/01/27 04:50:16;;;;;;;5.32;1.35;;;4.00;99.90;;;;;;5016518;28;20084;-55
2024/01/27 04:52:43;;;;;;;2.78;1.35;;;4.10;99.90;;;;;;5023298;28;20052;-56
2024/01/27 04:55:09;;;;;;;7.53;1.80;;;4.10;99.90;;;;;;5026440;28;20117;-56
2024/01/27 04:57:36;;;;;;;4.28;1.55;;;4.00;99.90;;;;;;4997813;28;20057;-52
2024/01/27 05:00:07;;;;;;;4.88;2.00;;;4.00;99.90;;;;;;5030022;28;20405;-52
2024/01/27 05:02:34;;;;;;;3.13;1.50;;;4.00;99.90;;;;;;5023601;28;20045;-54
2024/01/27 05:05:02;;;;;;;2.72;1.60;;;4.10;99.90;;;;;;5030951;28;20498;-54
2024/01/27 05:07:29;;;;;;;4.15;2.05;;;4.10;99.90;;;;;;5029527;28;20073;-54
2024/01/27 05:09:56;;;;;;;5.63;1.58;;;4.10;99.90;;;;;;5021961;28;20494;-53
2024/01/27 05:12:23;;;;;;;2.08;1.08;;;4.10;99.90;;;;;;5031530;28;20046;-54
2024/01/27 05:14:50;;;;;;;8.32;1.70;;;4.10;99.90;;;;;;5031457;28;20040;-54
2024/01/27 05:17:17;;;;;;;4.22;1.50;;;4.20;99.90;;;;;;5035728;28;20091;-52
2024/01/27 05:19:44;;;;;;;6.70;2.25;;;4.10;99.90;;;;;;5030137;28;20037;-53
2024/01/27 05:22:11;;;;;;;6.43;1.83;;;4.10;99.90;;;;;;5025492;28;20056;-53
2024/01/27 05:24:38;;;;;;;6.22;2.08;;;4.10;99.90;;;;;;5023282;28;20121;-56
2024/01/27 05:27:04;;;;;;;4.28;1.98;;;4.10;99.90;;;;;;5035524;28;20045;-53
2024/01/27 05:29:31;;;;;;;3.90;1.52;;;4.10;99.90;;;;;;5030607;28;20049;-55
2024/01/27 05:31:58;;;;;;;4.28;1.67;;;4.10;99.90;;;;;;5012276;28;20044;-54
2024/01/27 05:34:25;;;;;;;3.13;1.80;;;4.10;99.90;;;;;;5028144;28;20071;-55
2024/01/27 05:36:52;;;;;;;6.00;1.63;;;4.10;99.90;;;;;;5033183;28;20100;-54
2024/01/27 05:39:19;;;;;;;3.38;1.92;;;4.00;99.90;;;;;;5022924;28;20498;-55
2024/01/27 05:41:46;;;;;;;7.57;1.85;;;4.00;99.90;;;;;;5024296;28;20048;-55
2024/01/27 05:44:13;;;;;;;4.50;1.70;;;3.90;99.90;;;;;;5031095;28;20052;-58
2024/01/27 05:46:40;;;;;;;6.65;1.70;;;3.90;99.90;;;;;;5023840;28;20048;-57
2024/01/27 05:49:07;;;;;;;5.65;1.98;;;3.90;99.90;;;;;;5020900;28;20042;-57
2024/01/27 05:51:34;;;;;;;4.78;1.65;;;3.90;99.90;;;;;;5014799;28;20038;-57
2024/01/27 05:54:02;;;;;;;8.18;1.65;;;3.90;99.90;;;;;;5024932;28;20430;-54
2024/01/27 05:56:29;;;;;;;3.55;1.55;;;3.90;99.90;;;;;;5033097;28;20049;-53
2024/01/27 05:58:55;;;;;;;5.30;1.83;;;3.80;99.90;;;;;;5034318;28;20406;-54
2024/01/27 06:01:22;;;;;;;6.93;2.20;;;3.80;99.90;;;;;;5020115;28;20498;-55
2024/01/27 06:03:49;;;;;;;8.68;1.88;;;3.90;99.90;;;;;;5025733;28;20393;-55
2024/01/27 06:06:16;;;;;;;6.30;1.55;;;3.90;99.90;;;;;;5029264;28;20062;-56
2024/01/27 06:08:43;;;;;;;6.22;1.70;;;3.90;99.90;;;;;;5033220;28;20041;-56
2024/01/27 06:11:10;;;;;;;8.63;1.90;;;3.80;99.90;;;;;;5024126;28;20052;-58
2024/01/27 06:13:40;;;;;;;4.78;2.15;;;3.70;99.90;;;;;;5029399;28;20043;-58
2024/01/27 06:16:09;;;;;;;7.45;2.55;;;3.70;99.90;;;;;;5033925;28;20060;-55
2024/01/27 06:18:36;;;;;;;6.80;2.80;;;3.70;99.90;;;;;;5019390;28;20042;-56
2024/01/27 06:21:05;;;;;;;5.50;2.35;;;3.70;99.90;;;;;;5014436;28;20057;-58
2024/01/27 06:23:33;;;;;;;6.78;2.42;;;3.80;99.90;;;;;;5033620;28;20053;-57
2024/01/27 06:26:07;;;;;;;11.52;3.28;;;3.80;99.90;;;;;;5016066;28;20391;-58
2024/01/27 06:28:34;;;;;;;9.00;2.63;;;3.70;99.90;;;;;;5033172;28;20041;-58
2024/01/27 06:31:05;;;;;;;10.70;2.97;;;3.70;99.90;;;;;;5033130;28;20075;-56
2024/01/27 06:33:32;;;;;;;8.25;3.45;;;3.80;99.90;;;;;;5025784;28;20133;-56
2024/01/27 06:35:59;;;;;;;;;;;3.70;99.90;;;;;;5032570;28;20120;-56
2024/01/27 06:38:27;;;;;;;7.50;2.28;;;3.70;99.90;;;;;;5033741;28;20337;-57
2024/01/27 06:40:54;;;;;;;5.68;2.10;;;3.70;99.90;;;;;;5033467;28;20081;-54
2024/01/27 06:43:20;;;;;;;8.35;2.30;;;3.80;99.90;;;;;;5008984;28;20109;-59
2024/01/27 06:45:47;;;;;;;6.10;2.17;;;3.80;99.90;;;;;;5021866;28;20197;-55
2024/01/27 06:48:14;;;;;;;6.80;2.55;;;3.80;99.90;;;;;;5033370;28;20049;-54
2024/01/27 06:50:41;;;;;;;10.55;3.65;;;3.80;99.90;;;;;;5025271;28;20034;-58
2024/01/27 06:53:10;;;;;;;8.23;2.97;;;3.80;99.90;;;;;;5024350;28;20037;-56
2024/01/27 06:55:37;;;;;;;6.75;2.92;;;3.80;99.90;;;;;;5031979;28;20088;-54
2024/01/27 06:58:08;;;;;;;9.65;3.17;;;3.80;99.90;;;;;;5033107;28;20065;-55
2024/01/27 07:00:35;;;;;;;8.82;3.42;;;3.80;99.90;;;;;;5016373;28;20046;-54
2024/01/27 07:03:02;;;;;;;9.60;3.88;;;3.80;99.90;;;;;;5032971;28;20041;-54
2024/01/27 07:05:29;;;;;;;9.90;3.20;;;3.80;99.90;;;;;;5027539;28;20077;-54
2024/01/27 07:07:56;;;;;;;7.00;2.40;;;3.70;99.90;;;;;;5022461;28;20498;-57
2024/01/27 07:10:23;;;;;;;9.73;2.70;;;3.70;99.90;;;;;;5011664;28;20483;-55
2024/01/27 07:12:50;;;;;;;7.25;3.00;;;3.70;99.90;;;;;;5032707;28;20549;-57
2024/01/27 07:15:17;;;;;;;8.27;3.22;;;3.70;99.90;;;;;;5020405;28;20048;-54
2024/01/27 07:17:44;;;;;;;13.15;4.80;;;3.70;99.90;;;;;;5032410;28;20541;-53
2024/01/27 07:20:11;;;;;;;15.27;5.80;;;3.60;99.90;;;;;;5032744;28;20061;-59
2024/01/27 07:22:38;;;;;;;18.70;6.18;;;3.60;99.90;;;;;;5024205;28;20045;-57
2024/01/27 07:25:05;;;;;;;9.27;3.70;;;3.70;99.90;;;;;;5023816;28;20048;-54
2024/01/27 07:27:32;;;;;;;20.95;7.35;;;3.70;99.90;;;;;;5031269;28;20050;-53
2024/01/27 07:29:59;;;;;;;15.18;5.07;;;3.80;99.90;;;;;;5030572;28;20046;-55
2024/01/27 07:32:26;;;;;;;7.88;3.88;;;3.70;99.90;;;;;;4995118;28;20065;-57
2024/01/27 07:34:52;;;;;;;11.15;3.17;;;3.70;99.90;;;;;;5020015;28;20509;-56
2024/01/27 07:37:20;;;;;;;7.95;3.13;;;3.70;99.90;;;;;;5032446;28;20052;-55
2024/01/27 07:39:48;;;;;;;7.50;3.17;;;3.70;99.90;;;;;;5016075;28;20121;-57
2024/01/27 07:42:15;;;;;;;9.32;2.63;;;3.70;99.90;;;;;;5024097;28;20045;-56
2024/01/27 07:44:42;;;;;;;9.65;3.00;;;3.70;99.90;;;;;;5031962;28;20033;-56
2024/01/27 07:47:09;;;;;;;6.90;3.45;;;3.60;99.90;;;;;;5027809;28;20041;-54
2024/01/27 07:49:36;;;;;;;7.63;3.03;;;3.60;99.90;;;;;;5032179;28;20044;-56
2024/01/27 07:52:03;;;;;;;6.97;2.95;;;3.70;99.90;;;;;;5024766;28;20034;-57
2024/01/27 07:54:31;;;;;;;6.28;3.35;;;3.70;99.90;;;;;;5023450;28;20037;-54
2024/01/27 07:56:59;;;;;;;12.98;5.00;;;3.70;99.90;;;;;;5030955;28;20037;-54
2024/01/27 07:59:26;;;;;;;6.47;3.72;;;3.80;99.90;;;;;;5023396;28;20042;-53
2024/01/27 08:01:53;;;;;;;8.15;2.90;;;3.70;99.90;;;;;;5021949;28;20044;-55
2024/01/27 08:04:20;;;;;;;8.52;3.35;;;3.80;99.90;;;;;;5024034;28;20394;-58
2024/01/27 08:06:49;;;;;;;7.72;4.20;;;3.80;99.90;;;;;;5032446;28;20074;-57
2024/01/27 08:09:17;;;;;;;10.50;3.42;;;3.90;99.90;;;;;;5025352;28;20041;-58
2024/01/27 08:11:44;;;;;;;11.57;3.58;;;4.00;99.90;;;;;;5021149;28;20501;-55
2024/01/27 08:14:11;;;;;;;8.43;3.55;;;4.00;99.90;;;;;;5022005;28;20434;-54
2024/01/27 08:16:38;;;;;;;6.60;3.40;;;4.00;99.90;;;;;;5032204;28;20367;-53
2024/01/27 08:19:04;;;;;;;6.13;2.50;;;4.20;99.90;;;;;;5030631;28;20038;-55
2024/01/27 08:21:32;;;;;;;;;;;4.30;99.90;;;;;;5012114;28;20050;-59
2024/01/27 08:23:59;;;;;;;10.43;3.63;;;4.40;99.90;;;;;;5028579;28;20416;-54
2024/01/27 08:26:26;;;;;;;7.45;3.05;;;4.60;99.90;;;;;;5026139;28;20037;-54
2024/01/27 08:28:55;;;;;;;7.32;3.63;;;4.80;99.90;;;;;;5031833;28;20055;-53
2024/01/27 08:31:23;;;;;;;7.05;3.20;;;4.90;99.90;;;;;;5021477;28;20041;-57
2024/01/27 08:33:50;;;;;;;8.00;3.58;;;5.00;99.90;;;;;;5001444;28;20088;-55
2024/01/27 08:36:17;;;;;;;15.07;4.63;;;5.10;99.90;;;;;;5031184;28;20128;-58
2024/01/27 08:38:44;;;;;;;10.02;4.10;;;5.20;99.90;;;;;;5014306;28;20103;-58
2024/01/27 08:41:12;;;;;;;11.20;3.63;;;5.30;99.90;;;;;;5021448;28;20045;-57
2024/01/27 08:43:39;;;;;;;;;;;5.40;99.90;;;;;;5013649;28;20042;-56
2024/01/27 08:46:07;;;;;;;7.47;3.53;;;5.50;99.90;;;;;;5020419;28;19926;-55
2024/01/27 08:48:34;;;;;;;10.40;3.53;;;5.60;99.90;;;;;;5031717;28;20120;-55
2024/01/27 08:51:01;;;;;;;9.50;3.85;;;5.50;99.90;;;;;;5029265;28;20117;-55
2024/01/27 08:53:28;;;;;;;12.82;6.82;;;5.60;99.90;;;;;;5018610;28;20045;-58
2024/01/27 08:55:55;;;;;;;11.13;4.82;;;5.60;99.90;;;;;;5030827;28;20064;-54
2024/01/27 08:58:21;;;;;;;17.42;7.22;;;5.70;99.90;;;;;;5023008;28;20044;-54
2024/01/27 09:00:48;;;;;;;8.57;4.53;;;5.70;99.90;;;;;;5027203;28;20483;-58
2024/01/27 09:03:16;;;;;;;7.40;3.88;;;5.70;99.90;;;;;;5030018;28;20087;-55
2024/01/27 09:05:45;;;;;;;9.15;3.47;;;5.70;99.90;;;;;;5030839;28;20405;-54
2024/01/27 09:08:11;;;;;;;11.98;3.63;;;5.70;99.90;;;;;;5026441;28;20047;-54
2024/01/27 09:10:38;;;;;;;11.48;3.00;;;5.80;99.90;;;;;;5023293;28;20421;-56
2024/01/27 09:13:05;;;;;;;9.00;2.13;;;5.90;99.90;;;;;;5022833;28;20038;-58
2024/01/27 09:15:32;;;;;;;6.68;2.63;;;5.90;99.90;;;;;;5031207;28;20040;-58
2024/01/27 09:17:59;;;;;;;8.45;2.45;;;6.00;99.90;;;;;;5027805;28;20517;-58
2024/01/27 09:20:26;;;;;;;8.18;2.67;;;6.10;99.90;;;;;;5022702;28;20046;-56
2024/01/27 09:22:53;;;;;;;11.20;3.15;;;6.20;99.90;;;;;;5030862;28;20494;-57
2024/01/27 09:25:20;;;;;;;11.27;2.40;;;6.10;99.90;;;;;;5021718;28;20513;-57
2024/01/27 09:27:46;;;;;;;3.92;2.03;;;6.00;99.90;;;;;;5026809;28;20451;-56
2024/01/27 09:30:14;;;;;;;5.50;2.10;;;6.10;99.90;;;;;;5029284;28;20104;-56
2024/01/27 09:32:41;;;;;;;6.00;2.20;;;6.20;99.90;;;;;;5029552;28;20034;-55
2024/01/27 09:35:08;;;;;;;7.88;2.50;;;6.20;99.90;;;;;;5004150;28;20503;-58
2024/01/27 09:37:35;;;;;;;7.38;2.53;;;6.20;99.90;;;;;;5030883;28;20470;-58
2024/01/27 09:40:04;;;;;;;10.63;2.80;;;6.30;99.90;;;;;;5019829;28;20499;-57
2024/01/27 09:42:34;;;;;;;6.03;2.38;;;6.30;99.90;;;;;;5017699;28;20041;-57
2024/01/27 09:45:02;;;;;;;7.35;2.63;;;6.40;99.90;;;;;;5019547;28;20080;-53
2024/01/27 09:47:29;;;;;;;;;;;6.40;99.90;;;;;;5023538;28;20071;-56
2024/01/27 09:49:56;;;;;;;10.25;3.50;;;6.50;99.90;;;;;;5023921;28;19928;-54
2024/01/27 09:52:24;;;;;;;;;;;6.60;99.90;;;;;;5020080;28;20073;-56
2024/01/27 09:54:51;;;;;;;8.30;2.22;;;6.70;99.90;;;;;;5010900;28;20297;-57
2024/01/27 09:57:20;;;;;;;5.05;2.58;;;6.80;99.90;;;;;;5010627;28;20038;-54
2024/01/27 09:59:49;;;;;;;8.80;2.53;;;6.70;99.90;;;;;;5024771;28;20442;-56
2024/01/27 10:02:17;;;;;;;8.07;2.90;;;6.80;99.90;;;;;;5025578;28;20045;-56
2024/01/27 10:04:45;;;;;;;6.93;2.60;;;6.90;99.90;;;;;;5034146;28;20044;-55
2024/01/27 10:07:12;;;;;;;8.35;2.70;;;6.90;99.90;;;;;;5032679;28;20041;-55
2024/01/27 10:09:41;;;;;;;8.45;2.70;;;6.90;99.90;;;;;;5026202;28;20037;-63
2024/01/27 10:12:11;;;;;;;9.75;2.45;;;6.80;99.90;;;;;;5027640;28;20045;-58
2024/01/27 10:14:44;;;;;;;7.38;2.83;;;6.80;99.90;;;;;;5034164;28;20096;-58
2024/01/27 10:17:12;;;;;;;8.32;2.75;;;6.80;99.90;;;;;;5012726;28;20045;-60
2024/01/27 10:19:38;;;;;;;;;;;6.80;99.90;;;;;;5034802;28;20064;-57
2024/01/27 10:22:11;;;;;;;9.88;2.40;;;6.90;99.90;;;;;;5021345;28;19972;-59
2024/01/27 10:24:38;;;;;;;11.63;3.08;;;6.90;99.90;;;;;;5031937;28;20057;-56
2024/01/27 10:27:05;;;;;;;7.82;2.72;;;7.00;99.90;;;;;;5029932;28;20060;-56
2024/01/27 10:29:32;;;;;;;6.35;2.72;;;7.00;99.90;;;;;;5034182;28;20067;-59
2024/01/27 10:32:10;;;;;;;7.10;2.58;;;6.90;99.90;;;;;;5034113;28;20050;-60
2024/01/27 10:34:37;;;;;;;10.32;2.78;;;6.80;99.90;;;;;;5025858;28;20033;-59
2024/01/27 10:37:04;;;;;;;10.68;2.95;;;6.70;99.90;;;;;;5032905;28;20038;-58
2024/01/27 10:39:31;;;;;;;10.48;2.58;;;6.70;99.90;;;;;;5030262;28;20033;-58
2024/01/27 10:42:02;;;;;;;9.80;2.70;;;6.60;99.90;;;;;;5027891;28;20556;-58
2024/01/27 10:44:29;;;;;;;9.93;2.90;;;6.50;99.90;;;;;;5025317;28;20053;-60
2024/01/27 10:46:58;;;;;;;4.60;2.30;;;6.40;99.90;;;;;;5030496;28;20107;-60
2024/01/27 10:49:28;;;;;;;18.13;3.53;;;6.40;99.90;;;;;;5032019;28;20057;-58
2024/01/27 10:51:57;;;;;;;7.90;3.08;;;6.20;99.90;;;;;;5028441;28;20057;-55
2024/01/27 10:54:27;;;;;;;11.00;3.15;;;6.30;99.90;;;;;;5032577;28;20116;-58
2024/01/27 10:57:02;;;;;;;6.88;2.45;;;6.40;99.90;;;;;;5033569;28;20410;-55
2024/01/27 10:59:30;;;;;;;7.05;2.83;;;6.50;99.90;;;;;;5033663;28;20049;-56
2024/01/27 11:01:57;;;;;;;8.00;2.65;;;6.40;99.90;;;;;;5032180;28;20128;-61
2024/01/27 11:04:26;;;;;;;10.57;2.90;;;6.50;99.90;;;;;;5033261;28;20132;-59
2024/01/27 11:06:55;;;;;;;8.20;2.45;;;6.50;99.90;;;;;;5027045;28;20064;-58
2024/01/27 11:09:22;;;;;;;10.38;2.72;;;6.60;99.90;;;;;;5023470;28;20056;-56
2024/01/27 11:11:49;;;;;;;;;;;6.70;99.90;;;;;;5030294;28;20092;-56
2024/01/27 11:14:16;;;;;;;10.45;2.90;;;6.70;99.90;;;;;;5032039;28;19928;-57
2024/01/27 11:16:45;;;;;;;10.77;3.22;;;6.90;99.90;;;;;;5029072;28;20038;-59
2024/01/27 11:19:12;;;;;;;8.05;2.70;;;6.90;99.90;;;;;;5033255;28;20060;-57
2024/01/27 11:21:39;;;;;;;7.68;2.60;;;7.00;99.90;;;;;;5013466;28;20049;-56
2024/01/27 11:24:16;;;;;;;;;;;6.90;99.90;;;;;;5024211;28;20034;-58
2024/01/27 11:26:44;;;;;;;8.55;2.90;;;6.90;99.90;;;;;;5017337;28;20352;-61
2024/01/27 11:29:19;;;;;;;11.35;2.83;;;7.00;99.90;;;;;;5033060;28;20055;-59
2024/01/27 11:31:46;;;;;;;5.80;2.63;;;7.00;99.90;;;;;;5018898;28;20038;-59
2024/01/27 11:34:16;;;;;;;11.60;3.15;;;6.90;99.90;;;;;;5032799;28;20048;-57
2024/01/27 11:36:44;;;;;;;7.63;3.30;;;6.80;99.90;;;;;;5032486;28;20454;-57
2024/01/27 11:39:30;;;;;;;8.10;2.63;;;6.70;99.90;;;;;;5033010;28;20038;-60
2024/01/27 11:42:07;;;;;;;6.60;2.83;;;6.70;99.90;;;;;;5000982;28;20042;-59
2024/01/27 11:44:38;;;;;;;8.98;2.55;;;6.60;99.90;;;;;;5032424;28;20041;-59
2024/01/27 11:47:13;;;;;;;7.53;2.67;;;6.60;99.90;;;;;;5019898;28;20524;-59
2024/01/27 11:49:41;;;;;;;5.70;2.25;;;6.70;99.90;;;;;;5018834;28;20074;-59
2024/01/27 11:52:11;;;;;;;7.43;2.40;;;6.70;99.90;;;;;;5028482;28;20122;-56
2024/01/27 11:54:38;;;;;;;7.75;2.50;;;6.80;99.90;;;;;;5020582;28;20042;-59
2024/01/27 11:57:05;;;;;;;7.90;2.65;;;6.90;99.90;;;;;;5027482;28;20375;-60
2024/01/27 11:59:34;;;;;;;11.50;2.50;;;7.00;99.90;;;;;;5032685;28;20037;-58
2024/01/27 12:02:04;;;;;;;9.10;2.45;;;7.20;99.90;;;;;;5029042;28;20445;-58
2024/01/27 12:04:31;;;;;;;8.30;2.85;;;7.30;99.90;;;;;;5015362;28;20656;-59
2024/01/27 12:06:58;;;;;;;9.00;2.67;;;7.40;99.90;;;;;;5032395;28;20557;-59
2024/01/27 12:09:25;;;;;;;5.50;2.20;;;7.40;99.90;;;;;;5022543;28;20132;-60
2024/01/27 12:11:53;;;;;;;7.43;2.80;;;7.40;99.90;;;;;;5020103;28;20060;-59
2024/01/27 12:14:20;;;;;;;9.15;2.67;;;7.50;99.90;;;;;;5031763;28;20049;-58
2024/01/27 12:16:47;;;;;;;9.70;2.40;;;7.60;99.90;;;;;;5004678;28;20497;-59
2024/01/27 12:19:14;;;;;;;7.60;2.70;;;7.70;99.90;;;;;;5032422;28;20088;-57
2024/01/27 12:21:48;;;;;;;7.03;2.25;;;7.70;99.90;;;;;;5031835;28;20041;-55
2024/01/27 12:24:17;;;;;;;9.73;2.50;;;7.90;99.90;;;;;;5027785;28;20074;-54
2024/01/27 12:26:48;;;;;;;7.93;2.50;;;7.90;99.90;;;;;;5014368;28;20406;-56
2024/01/27 12:29:15;;;;;;;7.40;2.50;;;7.90;99.90;;;;;;5028019;28;20052;-58
2024/01/27 12:31:43;;;;;;;10.80;2.50;;;7.90;99.90;;;;;;5030777;28;20128;-58
2024/01/27 12:34:10;;;;;;;5.72;2.13;;;7.90;99.90;;;;;;5030198;28;20298;-59
2024/01/27 12:36:43;;;;;;;5.85;2.33;;;7.90;99.90;;;;;;5022569;28;20056;-58
2024/01/27 12:39:10;;;;;;;13.15;2.78;;;7.90;99.90;;;;;;5010763;28;20117;-60
2024/01/27 12:41:37;;;;;;;7.18;2.00;;;7.90;99.90;;;;;;5015193;28;20140;-57
2024/01/27 12:44:06;;;;;;;7.55;2.30;;;8.00;99.90;;;;;;5017217;28;20064;-58
2024/01/27 12:46:33;;;;;;;8.20;2.40;;;8.10;99.90;;;;;;5019609;28;20513;-56
2024/01/27 12:49:00;;;;;;;12.20;3.00;;;8.10;99.90;;;;;;5018243;28;20099;-60
2024/01/27 12:51:27;;;;;;;9.07;2.50;;;8.20;99.90;;;;;;5013864;28;20506;-57
2024/01/27 12:53:54;;;;;;;11.40;2.50;;;8.10;99.90;;;;;;5012254;28;20034;-59
2024/01/27 12:56:21;;;;;;;6.38;2.10;;;8.20;99.90;;;;;;5010940;28;20525;-57
2024/01/27 12:58:48;;;;;;;7.60;2.13;;;8.30;99.90;;;;;;5024052;28;20040;-57